Time;durP1;ratioP1;P1;durP2;ratioP2;P2;SDS_P1;SDS_P2;PMS_P1;PMS_P2;Temp;Humidity;BMP_temperature;BMP_pressure;BME280_temperature;BME280_humidity;BME280_pressure;Samples;Min_cycle;Max_cycle;Signal;HPM_P1;HPM_P2
2021/11/24 00:02:24;;;;;;;12.47;9.13;;;;;;;0.63;74.67;100820.34;1682786;85;22219;-73
2021/11/24 00:04:51;;;;;;;10.50;7.58;;;;;;;0.62;74.68;100823.40;1729550;82;21488;-72
2021/11/24 00:07:17;;;;;;;10.85;8.05;;;;;;;0.57;74.62;100822.22;1704956;82;21053;-72
2021/11/24 00:09:44;;;;;;;9.03;6.37;;;;;;;0.54;74.71;100824.08;1701414;83;20973;-72
2021/11/24 00:12:11;;;;;;;9.93;7.12;;;;;;;0.52;74.71;100828.48;1703809;83;21012;-73
2021/11/24 00:14:38;;;;;;;8.78;6.33;;;;;;;0.46;74.73;100836.00;1700473;84;21869;-73
2021/11/24 00:17:06;;;;;;;8.93;6.70;;;;;;;0.47;74.81;100830.36;1699414;84;20950;-72
2021/11/24 00:19:34;;;;;;;8.88;6.47;;;;;;;0.46;74.80;100839.91;1640473;87;21437;-72
2021/11/24 00:22:00;;;;;;;6.60;5.25;;;;;;;0.46;74.81;100833.41;1658242;86;21009;-73
2021/11/24 00:24:27;;;;;;;8.95;5.92;;;;;;;0.47;74.75;100835.10;1637901;85;21511;-73
2021/11/24 00:26:54;;;;;;;8.00;5.65;;;;;;;0.39;74.60;100837.11;1638435;86;22248;-71
2021/11/24 00:29:20;;;;;;;8.48;6.22;;;;;;;0.34;74.73;100835.08;1650190;86;21022;-72
2021/11/24 00:31:47;;;;;;;9.95;6.40;;;;;;;0.36;74.80;100841.53;1647449;85;21576;-72
2021/11/24 00:34:14;;;;;;;8.73;6.00;;;;;;;0.38;74.84;100841.88;1632670;85;20997;-72
2021/11/24 00:36:41;;;;;;;7.37;5.80;;;;;;;0.40;74.79;100849.20;1685992;82;21069;-72
2021/11/24 00:39:07;;;;;;;7.22;5.95;;;;;;;0.37;74.76;100856.22;1728057;82;22216;-73
2021/11/24 00:41:34;;;;;;;8.68;6.10;;;;;;;0.38;74.79;100858.77;1704684;82;21060;-72
2021/11/24 00:44:01;;;;;;;8.30;6.17;;;;;;;0.36;74.74;100859.72;1699598;82;21025;-72
2021/11/24 00:46:28;;;;;;;8.20;5.92;;;;;;;0.34;74.65;100864.96;1700252;82;21190;-71
2021/11/24 00:48:55;;;;;;;8.95;6.15;;;;;;;0.32;74.71;100858.12;1705063;84;20964;-71
2021/11/24 00:51:21;;;;;;;9.30;6.33;;;;;;;0.38;74.63;100858.77;1705330;84;22201;-71
2021/11/24 00:53:48;;;;;;;7.78;6.10;;;;;;;0.41;74.61;100860.00;1704979;84;21127;-72
2021/11/24 00:56:15;;;;;;;8.13;6.50;;;;;;;0.44;74.59;100864.23;1701818;82;21025;-72
2021/11/24 00:58:41;;;;;;;8.58;6.33;;;;;;;0.46;74.54;100865.04;1700782;82;21034;-72
2021/11/24 01:01:08;;;;;;;8.35;6.40;;;;;;;0.47;74.49;100871.48;1679829;82;21036;-71
2021/11/24 01:03:35;;;;;;;9.03;6.28;;;;;;;0.47;74.48;100871.48;1648429;84;21867;-72
2021/11/24 01:06:04;;;;;;;9.25;6.15;;;;;;;0.49;74.48;100871.02;1665791;83;20982;-72
2021/11/24 01:08:33;;;;;;;10.23;7.47;;;;;;;0.49;74.43;100865.82;1713694;83;21028;-72
2021/11/24 01:11:00;;;;;;;8.60;6.97;;;;;;;0.50;74.39;100866.22;1717553;81;20997;-72
2021/11/24 01:13:27;;;;;;;9.33;7.12;;;;;;;0.47;74.35;100861.54;1673852;84;21024;-72
2021/11/24 01:15:53;;;;;;;8.05;6.97;;;;;;;0.48;74.39;100865.42;1675285;85;22694;-72
2021/11/24 01:18:21;;;;;;;9.05;7.05;;;;;;;0.48;74.37;100865.42;1675367;85;21074;-71
2021/11/24 01:20:49;;;;;;;8.03;6.80;;;;;;;0.49;74.38;100864.52;1678173;83;21029;-73
2021/11/24 01:23:16;;;;;;;8.80;6.70;;;;;;;0.52;74.38;100869.61;1705029;84;21001;-72
2021/11/24 01:25:43;;;;;;;9.78;7.28;;;;;;;0.53;74.34;100878.27;1687097;84;20982;-73
2021/11/24 01:28:10;;;;;;;8.95;6.55;;;;;;;0.52;74.33;100876.11;1693869;84;22623;-72
2021/11/24 01:30:37;;;;;;;8.60;6.62;;;;;;;0.52;74.23;100879.16;1703678;84;21021;-72
2021/11/24 01:33:04;;;;;;;9.95;6.85;;;;;;;0.51;74.23;100883.96;1684460;84;21076;-72
2021/11/24 01:35:32;;;;;;;10.00;6.90;;;;;;;0.52;74.26;100882.61;1704593;83;21102;-72
2021/11/24 01:37:59;;;;;;;9.05;7.42;;;;;;;0.51;74.26;100887.41;1688929;83;21491;-73
2021/11/24 01:40:25;;;;;;;9.93;7.08;;;;;;;0.52;74.23;100888.27;1701170;83;22218;-72
2021/11/24 01:42:52;;;;;;;9.98;7.22;;;;;;;0.53;74.23;100895.16;1687141;83;21001;-73
2021/11/24 01:45:20;;;;;;;9.88;6.75;;;;;;;0.53;74.23;100897.30;1700644;83;21025;-70
2021/11/24 01:47:47;;;;;;;10.13;7.08;;;;;;;0.54;74.22;100892.95;1694579;83;21101;-71
2021/11/24 01:50:14;;;;;;;9.35;7.40;;;;;;;0.55;74.17;100902.00;1680622;83;21441;-71
2021/11/24 01:52:41;;;;;;;9.50;7.15;;;;;;;0.55;74.15;100903.75;1676719;85;21838;-71
2021/11/24 01:55:10;;;;;;;8.08;6.90;;;;;;;0.54;74.17;100904.20;1680796;84;21045;-72
2021/11/24 01:57:46;;;;;;;9.83;7.60;;;;;;;0.55;74.15;100898.11;1689361;83;21502;-72
2021/11/24 02:00:16;;;;;;;9.18;7.05;;;;;;;0.59;74.08;100902.78;1660323;85;21437;-71
2021/11/24 02:02:43;;;;;;;9.63;6.95;;;;;;;0.59;74.00;100903.23;1756730;81;20949;-72
2021/11/24 02:05:09;;;;;;;19.10;11.03;;;;;;;0.55;73.94;100900.70;1740623;80;22589;-72
2021/11/24 02:07:37;;;;;;;16.93;11.57;;;;;;;0.55;73.91;100906.35;1753097;80;21588;-73
2021/11/24 02:10:05;;;;;;;23.75;12.55;;;;;;;0.51;73.82;100904.30;1768200;81;20950;-72
2021/11/24 02:12:32;;;;;;;18.57;11.57;;;;;;;0.47;73.84;100909.17;1767156;81;21482;-73
2021/11/24 02:14:59;;;;;;;16.37;10.93;;;;;;;0.46;73.91;100909.22;1764310;81;20985;-71
2021/11/24 02:17:26;;;;;;;17.40;10.35;;;;;;;0.46;73.93;100913.12;1768441;80;22164;-71
2021/11/24 02:19:53;;;;;;;16.48;10.85;;;;;;;0.44;73.89;100907.97;1717338;81;21446;-70
2021/11/24 02:22:19;;;;;;;23.55;13.70;;;;;;;0.42;73.88;100911.06;1721232;82;21032;-71
2021/11/24 02:24:46;;;;;;;22.20;12.90;;;;;;;0.34;73.97;100912.18;1738035;82;20973;-71
2021/11/24 02:27:13;;;;;;;20.65;12.55;;;;;;;0.27;74.15;100919.28;1742379;80;21412;-72
2021/11/24 02:29:40;;;;;;;22.87;12.98;;;;;;;0.29;74.22;100921.42;1739041;81;21814;-72
2021/11/24 02:32:09;;;;;;;18.62;12.30;;;;;;;0.29;74.26;100934.41;1761422;80;20997;-73
2021/11/24 02:34:36;;;;;;;31.00;18.32;;;;;;;0.32;74.35;100936.06;1742357;81;20965;-72
2021/11/24 02:37:03;;;;;;;32.75;19.30;;;;;;;0.35;74.48;100935.97;1711798;80;21037;-72
2021/11/24 02:39:30;;;;;;;35.98;21.82;;;;;;;0.38;74.56;100937.17;1719321;80;21009;-71
2021/11/24 02:41:58;;;;;;;38.55;24.72;;;;;;;0.41;74.61;100936.66;1725463;82;22582;-70
2021/11/24 02:44:28;;;;;;;31.12;20.27;;;;;;;0.43;74.61;100935.30;1738236;81;20953;-71
2021/11/24 02:47:14;;;;;;;29.42;19.37;;;;;;;0.45;74.65;100936.95;1730733;81;21021;-71
2021/11/24 02:49:44;;;;;;;27.65;18.90;;;;;;;0.48;74.61;100946.41;1712390;81;21556;-71
2021/11/24 02:52:11;;;;;;;25.97;18.20;;;;;;;0.50;74.70;100951.98;1763074;81;21001;-71
2021/11/24 02:54:38;;;;;;;23.65;17.57;;;;;;;0.50;74.72;100955.88;1764388;81;21816;-72
2021/11/24 02:57:08;;;;;;;24.52;16.37;;;;;;;0.50;74.71;100955.03;1741046;80;20982;-73
2021/11/24 02:59:37;;;;;;;24.55;17.70;;;;;;;0.51;74.74;100957.59;1722105;82;20957;-71
2021/11/24 03:02:05;;;;;;;22.27;16.32;;;;;;;0.52;74.81;100961.88;1746356;81;20957;-72
2021/11/24 03:04:34;;;;;;;24.50;17.12;;;;;;;0.54;74.79;100956.63;1763917;80;20952;-72
2021/11/24 03:07:02;;;;;;;20.62;15.93;;;;;;;0.55;74.74;100959.63;1755233;80;21890;-71
2021/11/24 03:09:31;;;;;;;24.70;17.15;;;;;;;0.55;74.70;100963.09;1715857;81;21348;-72
2021/11/24 03:11:59;;;;;;;24.37;16.93;;;;;;;0.54;74.68;100967.88;1730922;82;21463;-72
2021/11/24 03:14:26;;;;;;;22.25;16.37;;;;;;;0.55;74.59;100963.53;1728197;81;20968;-71
2021/11/24 03:16:55;;;;;;;22.65;16.67;;;;;;;0.53;74.58;100970.53;1744502;81;21059;-72
2021/11/24 03:19:22;;;;;;;23.07;16.75;;;;;;;0.52;74.59;100967.08;1756600;81;21850;-72
2021/11/24 03:21:49;;;;;;;23.22;16.37;;;;;;;0.52;74.67;100976.18;1749036;81;20988;-71
2021/11/24 03:24:16;;;;;;;26.02;18.37;;;;;;;0.53;74.68;100972.68;1770129;80;20969;-72
2021/11/24 03:26:43;;;;;;;26.20;18.10;;;;;;;0.53;74.65;100973.13;1730399;80;20975;-71
2021/11/24 03:29:10;;;;;;;27.07;19.57;;;;;;;0.48;74.57;100975.87;1732262;81;21068;-71
2021/11/24 03:31:37;;;;;;;28.42;21.25;;;;;;;0.47;74.59;100975.44;1747749;80;22232;-72
2021/11/24 03:34:06;;;;;;;26.75;18.65;;;;;;;0.47;74.56;100973.30;1740465;82;20997;-72
2021/11/24 03:36:33;;;;;;;23.57;18.87;;;;;;;0.44;74.59;100975.98;1719926;81;21059;-70
2021/11/24 03:38:59;;;;;;;19.60;14.33;;;;;;;0.43;74.64;100979.03;1742807;80;21001;-71
2021/11/24 03:41:26;;;;;;;18.57;14.47;;;;;;;0.41;74.65;100987.78;1735244;80;21451;-70
2021/11/24 03:43:53;;;;;;;16.27;12.53;;;;;;;0.39;74.69;100990.42;1753272;80;22199;-71
2021/11/24 03:46:19;;;;;;;16.65;12.85;;;;;;;0.39;74.63;100999.52;1768988;81;21127;-71
2021/11/24 03:48:46;;;;;;;14.53;11.38;;;;;;;0.33;74.68;100998.83;1734229;80;21337;-72
2021/11/24 03:51:15;;;;;;;14.73;10.28;;;;;;;0.31;74.74;101000.17;1734413;80;21568;-71
2021/11/24 03:53:42;;;;;;;15.38;10.00;;;;;;;0.30;74.75;101001.06;1729938;82;21377;-71
2021/11/24 03:56:10;;;;;;;16.23;11.38;;;;;;;0.29;74.79;101004.56;1738957;82;22176;-71
2021/11/24 03:58:36;;;;;;;17.23;11.50;;;;;;;0.28;74.82;101010.17;1737387;80;20966;-72
2021/11/24 04:01:04;;;;;;;13.75;10.28;;;;;;;0.30;74.80;101011.91;1716617;80;21049;-72
2021/11/24 04:03:32;;;;;;;15.68;10.82;;;;;;;0.31;74.76;101007.97;1730869;80;21104;-71
2021/11/24 04:05:59;;;;;;;16.17;11.25;;;;;;;0.30;74.74;101010.16;1712719;82;21006;-71
2021/11/24 04:08:26;;;;;;;16.37;11.57;;;;;;;0.29;74.70;101011.05;1739891;82;22452;-71
2021/11/24 04:10:53;;;;;;;16.82;11.60;;;;;;;0.29;74.68;101017.55;1723172;82;20961;-71
2021/11/24 04:13:21;;;;;;;14.65;10.45;;;;;;;0.27;74.70;101012.38;1716979;82;20994;-72
2021/11/24 04:15:48;;;;;;;17.42;13.03;;;;;;;0.28;74.70;101016.67;1717929;82;21088;-72
2021/11/24 04:18:16;;;;;;;17.35;12.80;;;;;;;0.24;74.67;101021.55;1740450;81;20949;-72
2021/11/24 04:20:43;;;;;;;17.52;12.63;;;;;;;0.23;74.69;101016.41;1733147;82;22682;-71
2021/11/24 04:23:10;;;;;;;16.15;12.13;;;;;;;0.25;74.76;101020.66;1720737;82;21003;-71
2021/11/24 04:25:36;;;;;;;17.32;12.40;;;;;;;0.27;74.78;101025.36;1725116;82;21014;-71
2021/11/24 04:28:04;;;;;;;15.93;11.73;;;;;;;0.31;74.77;101024.85;1740510;82;20986;-70
2021/11/24 04:30:30;;;;;;;16.82;11.70;;;;;;;0.32;74.77;101025.25;1739088;80;21447;-71
2021/11/24 04:32:57;;;;;;;15.23;11.60;;;;;;;0.35;74.86;101028.21;1726363;82;22498;-72
2021/11/24 04:35:23;;;;;;;18.37;12.58;;;;;;;0.39;74.90;101031.15;1722891;82;21408;-72
2021/11/24 04:37:52;;;;;;;15.75;11.53;;;;;;;0.41;74.84;101028.06;1741436;80;21040;-71
2021/11/24 04:40:19;;;;;;;15.13;12.30;;;;;;;0.42;74.79;101033.20;1732140;80;21094;-71
2021/11/24 04:42:46;;;;;;;20.30;14.80;;;;;;;0.44;74.82;101038.36;1766757;81;20989;-71
2021/11/24 04:45:13;;;;;;;32.35;20.57;;;;;;;0.44;74.86;101039.66;1718798;81;22239;-70
2021/11/24 04:47:40;;;;;;;24.40;15.90;;;;;;;0.43;74.89;101046.60;1707671;80;20927;-70
2021/11/24 04:50:08;;;;;;;19.48;13.38;;;;;;;0.42;74.90;101046.66;1714681;80;21393;-71
2021/11/24 04:52:35;;;;;;;23.92;14.87;;;;;;;0.44;74.79;101047.45;1723401;82;21161;-70
2021/11/24 04:55:04;;;;;;;30.92;15.95;;;;;;;0.44;74.72;101050.05;1689653;83;21029;-70
2021/11/24 04:57:33;;;;;;;49.33;23.18;;;;;;;0.42;74.66;101047.95;1671198;83;22285;-71
2021/11/24 04:59:59;;;;;;;44.55;20.40;;;;;;;0.38;74.61;101055.41;1667603;84;21187;-72
2021/11/24 05:02:26;;;;;;;33.95;17.02;;;;;;;0.34;74.62;101054.64;1693860;83;21024;-70
2021/11/24 05:04:53;;;;;;;27.13;15.35;;;;;;;0.31;74.64;101054.73;1661910;85;20986;-71
2021/11/24 05:07:20;;;;;;;26.17;15.18;;;;;;;0.28;74.63;101060.84;1685795;83;21490;-72
2021/11/24 05:09:48;;;;;;;22.10;14.83;;;;;;;0.25;74.62;101056.18;1696588;83;21080;-71
2021/11/24 05:12:15;;;;;;;22.13;14.13;;;;;;;0.23;74.64;101057.97;1689386;83;20918;-71
2021/11/24 05:14:43;;;;;;;20.65;13.65;;;;;;;0.22;74.66;101059.72;1742734;80;21008;-72
2021/11/24 05:17:13;;;;;;;22.65;14.03;;;;;;;0.21;74.70;101058.02;1710063;82;21051;-70
2021/11/24 05:19:42;;;;;;;20.17;13.60;;;;;;;0.22;74.71;101060.17;1755859;80;21012;-70
2021/11/24 05:22:10;;;;;;;19.90;12.73;;;;;;;0.23;74.72;101064.47;1780102;80;21831;-69
2021/11/24 05:24:37;;;;;;;20.85;12.55;;;;;;;0.23;74.70;101063.17;1763217;80;21056;-69
2021/11/24 05:27:05;;;;;;;16.87;11.43;;;;;;;0.22;74.72;101063.61;1753181;80;20960;-68
2021/11/24 05:29:31;;;;;;;15.70;10.50;;;;;;;0.23;74.74;101069.22;1748208;80;21463;-69
2021/11/24 05:31:58;;;;;;;17.80;11.80;;;;;;;0.24;74.81;101060.97;1742888;82;21047;-72
2021/11/24 05:34:27;;;;;;;19.62;11.95;;;;;;;0.27;74.73;101069.53;1743793;80;21090;-71
2021/11/24 05:36:53;;;;;;;21.37;13.90;;;;;;;0.26;74.67;101074.33;1737556;80;21467;-69
2021/11/24 05:39:21;;;;;;;18.57;12.90;;;;;;;0.24;74.67;101076.11;1748633;82;20983;-70
2021/11/24 05:41:48;;;;;;;18.05;12.85;;;;;;;0.24;74.69;101080.45;1726669;80;21012;-72
2021/11/24 05:44:18;;;;;;;18.70;12.85;;;;;;;0.23;74.72;101084.80;1739308;80;21463;-72
2021/11/24 05:46:52;;;;;;;17.57;12.70;;;;;;;0.25;74.73;101084.77;1743037;80;21812;-72
2021/11/24 05:49:18;;;;;;;20.00;14.10;;;;;;;0.28;74.67;101085.52;1750824;80;21035;-69
2021/11/24 05:51:46;;;;;;;19.02;13.32;;;;;;;0.29;74.53;101082.51;1749809;80;20961;-72
2021/11/24 05:54:12;;;;;;;20.60;14.45;;;;;;;0.30;74.47;101086.81;1732873;80;21001;-70
2021/11/24 05:56:39;;;;;;;16.00;12.00;;;;;;;0.31;74.37;101092.86;1734122;80;21503;-72
2021/11/24 05:59:08;;;;;;;20.77;14.43;;;;;;;0.27;74.24;101091.61;1766494;80;21780;-74
2021/11/24 06:01:35;;;;;;;30.57;20.00;;;;;;;0.23;74.12;101087.84;1749250;80;21076;-72
2021/11/24 06:04:03;;;;;;;34.73;22.58;;;;;;;0.16;74.13;101095.38;1752744;80;21051;-75
2021/11/24 06:06:30;;;;;;;38.63;25.08;;;;;;;0.14;74.13;101101.92;1746865;80;22330;-73
2021/11/24 06:08:56;;;;;;;40.38;27.00;;;;;;;0.11;74.11;101110.24;1769011;80;20987;-74
2021/11/24 06:11:24;;;;;;;45.30;31.50;;;;;;;0.10;74.16;101102.90;1783900;80;21836;-72
2021/11/24 06:13:51;;;;;;;45.12;31.87;;;;;;;0.11;74.22;101111.55;1774626;79;21011;-72
2021/11/24 06:16:18;;;;;;;49.18;31.85;;;;;;;0.12;74.23;101112.80;1747988;80;21606;-70
2021/11/24 06:18:45;;;;;;;36.48;26.90;;;;;;;0.12;74.17;101110.65;1744563;82;21389;-71
2021/11/24 06:21:12;;;;;;;29.15;20.12;;;;;;;0.11;74.11;101114.14;1740301;82;21013;-70
2021/11/24 06:23:39;;;;;;;24.60;17.52;;;;;;;0.07;74.05;101115.94;1735396;82;21777;-70
2021/11/24 06:26:07;;;;;;;25.43;17.45;;;;;;;0.04;74.00;101120.37;1728340;82;21351;-70
2021/11/24 06:28:34;;;;;;;22.80;16.23;;;;;;;-0.01;74.00;101117.41;1741144;82;21371;-70
2021/11/24 06:31:01;;;;;;;23.32;15.63;;;;;;;-0.03;74.01;101117.91;1743198;80;21056;-70
2021/11/24 06:33:28;;;;;;;28.10;19.55;;;;;;;-0.03;74.04;101112.71;1700061;83;21095;-70
2021/11/24 06:35:55;;;;;;;33.20;21.70;;;;;;;0.01;74.05;101117.85;1747629;80;21810;-70
2021/11/24 06:38:23;;;;;;;47.48;30.97;;;;;;;0.03;74.04;101113.47;1744846;80;20957;-69
2021/11/24 06:40:49;;;;;;;38.05;25.65;;;;;;;0.04;74.05;101112.58;1693933;83;21064;-69
2021/11/24 06:43:16;;;;;;;33.08;22.75;;;;;;;0.03;74.03;101117.36;1676263;84;21424;-70
2021/11/24 06:45:43;;;;;;;21.35;15.90;;;;;;;0.04;74.09;101121.66;1665813;83;21012;-71
2021/11/24 06:48:09;;;;;;;18.40;13.15;;;;;;;0.07;74.11;101125.03;1697179;83;21842;-70
2021/11/24 06:50:36;;;;;;;19.02;13.35;;;;;;;0.11;74.07;101128.42;1676281;83;20968;-70
2021/11/24 06:53:03;;;;;;;15.58;12.10;;;;;;;0.14;74.09;101124.45;1683006;84;21363;-71
2021/11/24 06:55:31;;;;;;;14.40;11.25;;;;;;;0.19;74.08;101131.66;1713738;82;21494;-70
2021/11/24 06:57:58;;;;;;;14.75;10.80;;;;;;;0.20;74.00;101124.30;1743386;80;20961;-71
2021/11/24 07:00:26;;;;;;;12.73;9.73;;;;;;;0.21;73.98;101132.06;1760216;80;22795;-72
2021/11/24 07:02:53;;;;;;;13.55;9.83;;;;;;;0.22;73.95;101133.76;1730273;80;21095;-70
2021/11/24 07:05:20;;;;;;;14.80;10.25;;;;;;;0.22;73.93;101130.31;1740577;80;21048;-69
2021/11/24 07:07:47;;;;;;;13.93;11.28;;;;;;;0.24;73.99;101127.22;1723263;80;20964;-68
2021/11/24 07:10:13;;;;;;;13.00;10.63;;;;;;;0.24;73.89;101122.88;1755986;80;20968;-70
2021/11/24 07:12:40;;;;;;;14.85;11.15;;;;;;;0.23;73.90;101135.47;1727464;82;21844;-70
2021/11/24 07:15:08;;;;;;;13.98;10.15;;;;;;;0.25;73.90;101133.67;1731592;82;20961;-69
2021/11/24 07:17:35;;;;;;;14.07;10.50;;;;;;;0.27;73.89;101136.23;1726166;81;20971;-69
2021/11/24 07:20:04;;;;;;;14.33;10.85;;;;;;;0.27;73.83;101138.83;1726041;80;21092;-70
2021/11/24 07:22:32;;;;;;;15.50;11.15;;;;;;;0.27;73.81;101141.42;1747379;81;21123;-70
2021/11/24 07:25:00;;;;;;;15.63;11.60;;;;;;;0.25;73.75;101149.27;1748491;82;22429;-70
2021/11/24 07:27:27;;;;;;;16.67;12.55;;;;;;;0.21;73.78;101147.64;1739942;82;21531;-69
2021/11/24 07:29:54;;;;;;;17.82;13.08;;;;;;;0.22;73.87;101143.30;1749140;82;21008;-71
2021/11/24 07:32:21;;;;;;;18.90;13.75;;;;;;;0.26;74.03;101150.12;1748852;82;21028;-72
2021/11/24 07:34:48;;;;;;;18.15;13.53;;;;;;;0.31;74.01;101152.62;1749139;82;21084;-71
2021/11/24 07:37:14;;;;;;;19.95;15.13;;;;;;;0.37;74.08;101145.50;1748801;82;22809;-70
2021/11/24 07:39:41;;;;;;;20.27;15.13;;;;;;;0.40;74.07;101150.64;1749083;82;20996;-72
2021/11/24 07:42:08;;;;;;;21.80;15.10;;;;;;;0.40;74.09;101148.05;1738697;82;21087;-72
2021/11/24 07:44:35;;;;;;;22.48;15.32;;;;;;;0.45;74.21;101142.27;1748999;81;21051;-73
2021/11/24 07:47:02;;;;;;;20.12;14.35;;;;;;;0.54;74.25;101150.28;1748972;82;21527;-75
2021/11/24 07:49:29;;;;;;;20.90;15.03;;;;;;;0.59;74.12;101151.48;1749243;82;21789;-72
2021/11/24 07:51:56;;;;;;;22.95;15.58;;;;;;;0.58;73.99;101149.33;1746833;80;20961;-72
2021/11/24 07:54:22;;;;;;;26.27;17.95;;;;;;;0.59;74.00;101150.18;1747929;82;21448;-72
2021/11/24 07:56:49;;;;;;;29.65;18.55;;;;;;;0.57;74.02;101153.64;1747968;82;21471;-72
2021/11/24 07:59:16;;;;;;;41.98;24.63;;;;;;;0.60;74.09;101151.88;1748301;82;20961;-71
2021/11/24 08:01:43;;;;;;;42.62;23.75;;;;;;;0.63;74.05;101150.05;1748148;81;22456;-71
2021/11/24 08:04:11;;;;;;;45.90;24.67;;;;;;;0.66;74.05;101153.00;1748950;82;21474;-72
2021/11/24 08:06:38;;;;;;;41.50;22.37;;;;;;;0.66;73.95;101146.05;1748932;82;20952;-72
2021/11/24 08:09:04;;;;;;;49.23;25.60;;;;;;;0.71;73.99;101152.45;1749197;82;21041;-71
2021/11/24 08:11:31;;;;;;;40.25;22.87;;;;;;;0.78;74.05;101150.95;1748946;81;21526;-72
2021/11/24 08:13:58;;;;;;;32.33;20.72;;;;;;;0.89;74.00;101148.06;1749024;82;22252;-71
2021/11/24 08:16:24;;;;;;;32.42;20.82;;;;;;;1.01;73.79;101155.97;1748932;82;20953;-72
2021/11/24 08:18:51;;;;;;;31.12;20.40;;;;;;;1.07;73.60;101155.81;1748825;82;20964;-73
2021/11/24 08:21:17;;;;;;;25.70;16.73;;;;;;;1.14;73.53;101150.82;1744772;82;21046;-71
2021/11/24 08:23:45;;;;;;;25.80;16.93;;;;;;;1.19;73.21;101150.70;1742863;82;20996;-71
2021/11/24 08:26:13;;;;;;;27.73;17.95;;;;;;;1.22;73.02;101158.42;1748932;82;40799;-71
2021/11/24 08:28:40;;;;;;;27.55;17.87;;;;;;;1.26;72.87;101167.86;1749817;82;21541;-71
2021/11/24 08:31:07;;;;;;;27.07;17.90;;;;;;;1.28;72.81;101169.97;1751415;81;20977;-70
2021/11/24 08:33:34;;;;;;;24.18;17.32;;;;;;;1.36;72.69;101179.27;1751321;81;20956;-70
2021/11/24 08:36:00;;;;;;;29.20;19.07;;;;;;;1.41;72.63;101178.67;1750381;82;20999;-72
2021/11/24 08:38:27;;;;;;;26.20;17.87;;;;;;;1.41;72.42;101174.77;1748843;81;22505;-70
2021/11/24 08:40:54;;;;;;;32.70;21.07;;;;;;;1.41;72.34;101178.67;1748138;82;21432;-70
2021/11/24 08:43:21;;;;;;;27.75;18.90;;;;;;;1.43;72.27;101176.87;1748129;80;21072;-71
2021/11/24 08:45:48;;;;;;;25.95;17.48;;;;;;;1.43;72.15;101174.27;1685660;83;21079;-70
2021/11/24 08:48:15;;;;;;;30.95;19.32;;;;;;;1.43;72.18;101169.51;1746410;82;20964;-68
2021/11/24 08:50:41;;;;;;;30.70;19.87;;;;;;;1.45;72.11;101166.44;1762025;80;21750;-69
2021/11/24 08:53:08;;;;;;;30.12;20.05;;;;;;;1.48;72.04;101170.25;1765916;80;21032;-69
2021/11/24 08:55:34;;;;;;;31.60;21.45;;;;;;;1.48;71.81;101177.20;1749163;82;21432;-70
2021/11/24 08:58:01;;;;;;;31.87;21.85;;;;;;;1.46;71.75;101173.34;1748905;82;21000;-70
2021/11/24 09:00:27;;;;;;;31.62;20.45;;;;;;;1.47;71.77;101165.09;1749227;82;20956;-70
2021/11/24 09:02:54;;;;;;;33.88;20.52;;;;;;;1.50;71.80;101171.50;1746401;82;21715;-70
2021/11/24 09:05:21;;;;;;;30.12;20.25;;;;;;;1.50;71.75;101171.50;1727026;82;21498;-70
2021/11/24 09:07:48;;;;;;;32.65;21.55;;;;;;;1.51;71.84;101170.14;1752066;81;21106;-70
2021/11/24 09:10:17;;;;;;;31.62;22.17;;;;;;;1.53;71.91;101165.73;1745582;80;20962;-71
2021/11/24 09:12:43;;;;;;;33.33;22.50;;;;;;;1.56;71.94;101168.27;1727215;80;20961;-70
2021/11/24 09:15:10;;;;;;;32.23;21.70;;;;;;;1.55;71.97;101173.08;1740764;80;21825;-71
2021/11/24 09:17:37;;;;;;;35.58;22.93;;;;;;;1.60;72.06;101177.69;1703216;82;21025;-70
2021/11/24 09:20:05;;;;;;;35.40;23.47;;;;;;;1.63;72.14;101164.56;1709032;83;21012;-71
2021/11/24 09:22:33;;;;;;;38.75;25.88;;;;;;;1.68;72.27;101170.95;1653590;86;21446;-71
2021/11/24 09:25:00;;;;;;;37.50;24.50;;;;;;;1.73;72.42;101167.30;1715988;83;21039;-71
2021/11/24 09:27:35;;;;;;;36.00;23.07;;;;;;;1.82;72.55;101173.13;1734284;82;22278;-71
2021/11/24 09:30:01;;;;;;;35.78;21.87;;;;;;;1.87;72.62;101173.41;1745263;82;21031;-71
2021/11/24 09:32:29;;;;;;;37.65;24.50;;;;;;;1.94;72.60;101169.72;1745380;82;21094;-71
2021/11/24 09:34:55;;;;;;;30.45;21.02;;;;;;;2.00;72.67;101166.05;1745522;82;21445;-71
2021/11/24 09:37:22;;;;;;;32.15;20.92;;;;;;;2.07;72.76;101164.11;1746484;82;21036;-71
2021/11/24 09:39:49;;;;;;;35.05;21.50;;;;;;;2.09;72.75;101168.38;1746497;82;21829;-70
2021/11/24 09:42:16;;;;;;;34.70;22.25;;;;;;;2.11;72.79;101161.80;1746423;81;20933;-70
2021/11/24 09:44:47;;;;;;;33.18;21.35;;;;;;;2.11;72.81;101173.08;1746418;82;20953;-70
2021/11/24 09:47:14;;;;;;;32.63;19.62;;;;;;;2.13;72.83;101169.14;1746376;82;20961;-69
2021/11/24 09:49:45;;;;;;;34.85;21.30;;;;;;;2.13;72.85;101173.91;1746608;82;20984;-69
2021/11/24 09:52:11;;;;;;;33.50;21.20;;;;;;;2.11;72.80;101169.62;1746456;82;21778;-70
2021/11/24 09:54:38;;;;;;;33.28;20.90;;;;;;;2.12;72.89;101166.11;1746389;82;20934;-70
2021/11/24 09:57:05;;;;;;;32.88;20.82;;;;;;;2.12;73.02;101158.29;1700242;82;21420;-69
2021/11/24 09:59:31;;;;;;;31.20;21.05;;;;;;;2.13;73.11;101156.11;1746408;81;21451;-70
2021/11/24 10:01:58;;;;;;;35.80;21.93;;;;;;;2.12;73.17;101154.38;1746462;82;21056;-70
2021/11/24 10:04:25;;;;;;;38.45;25.40;;;;;;;2.13;73.24;101151.75;1746601;82;22839;-70
2021/11/24 10:06:51;;;;;;;33.63;22.42;;;;;;;2.13;73.30;101156.97;1746290;82;21035;-71
2021/11/24 10:09:20;;;;;;;50.98;37.58;;;;;;;2.17;73.45;101147.28;1744424;82;20988;-71
2021/11/24 10:11:46;;;;;;;37.55;23.22;;;;;;;2.21;73.58;101140.60;1746453;82;21032;-70
2021/11/24 10:14:13;;;;;;;32.93;21.97;;;;;;;2.25;73.51;101147.89;1746437;82;21452;-70
2021/11/24 10:16:39;;;;;;;33.70;21.62;;;;;;;2.26;73.54;101144.38;1746770;82;22197;-72
2021/11/24 10:19:12;;;;;;;36.25;22.35;;;;;;;2.27;73.57;101141.72;1745312;82;20953;-69
2021/11/24 10:22:14;;;;;;;33.63;23.15;;;;;;;2.29;73.61;101140.36;1746696;82;20956;-67
2021/11/24 10:24:41;;;;;;;32.83;21.12;;;;;;;2.30;73.71;101134.23;1746320;82;20953;-68
2021/11/24 10:27:11;;;;;;;46.00;31.97;;;;;;;2.33;73.76;101138.52;1746760;82;21015;-68
2021/11/24 10:29:40;;;;;;;46.08;32.55;;;;;;;2.32;73.71;101138.98;1746523;82;22489;-68
2021/11/24 10:32:09;;;;;;;48.80;34.20;;;;;;;2.30;73.74;101149.42;1746728;82;20936;-69
2021/11/24 10:34:41;;;;;;;32.50;20.92;;;;;;;2.30;73.76;101139.45;1746410;82;20965;-67
2021/11/24 10:37:15;;;;;;;53.75;41.18;;;;;;;2.33;73.76;101147.64;1746677;82;21387;-69
2021/11/24 10:39:59;;;;;;;45.43;33.33;;;;;;;2.35;73.75;101145.38;1746365;81;21005;-69
2021/11/24 10:42:34;;;;;;;31.70;21.40;;;;;;;2.35;73.76;101140.16;1746519;81;21439;-68
2021/11/24 10:45:14;;;;;;;;;;;;;;;2.34;73.78;101144.13;1748937;82;21246;-69
2021/11/24 10:47:54;;;;;;;42.65;30.82;;;;;;;2.36;73.82;101143.62;1746401;81;20162;-69
2021/11/24 10:50:27;;;;;;;31.50;21.48;;;;;;;2.39;73.93;101139.60;1746505;82;21506;-69
2021/11/24 10:52:54;;;;;;;30.95;21.17;;;;;;;2.42;73.84;101138.22;1746685;82;21099;-68
2021/11/24 10:55:30;;;;;;;31.27;22.10;;;;;;;2.42;73.75;101132.55;1746401;82;21792;-69
2021/11/24 10:58:07;;;;;;;30.90;20.85;;;;;;;2.41;73.65;101126.05;1746402;82;20998;-69
2021/11/24 11:00:42;;;;;;;30.43;20.20;;;;;;;2.41;73.66;101126.91;1746410;82;20960;-69
2021/11/24 11:03:11;;;;;;;31.23;20.05;;;;;;;2.42;73.71;101129.94;1746425;82;21486;-69
2021/11/24 11:05:44;;;;;;;28.98;20.20;;;;;;;2.45;73.76;101126.38;1746468;82;20953;-69
2021/11/24 11:08:13;;;;;;;33.23;21.42;;;;;;;2.50;73.80;101129.20;1745336;81;21880;-70
2021/11/24 11:10:47;;;;;;;27.48;19.73;;;;;;;2.53;73.79;101117.84;1725649;82;21517;-72
2021/11/24 11:13:17;;;;;;;28.92;19.87;;;;;;;2.57;73.86;101125.95;1746484;82;21001;-71
2021/11/24 11:15:50;;;;;;;32.08;20.95;;;;;;;2.62;73.79;101120.13;1746642;82;20957;-71
2021/11/24 11:18:25;;;;;;;29.00;19.42;;;;;;;2.63;73.73;101117.92;1746512;82;20941;-71
2021/11/24 11:21:00;;;;;;;30.52;19.42;;;;;;;2.64;73.66;101120.92;1746455;82;21718;-72
2021/11/24 11:23:32;;;;;;;26.70;18.20;;;;;;;2.63;73.68;101110.09;1746748;82;20925;-71